sensor_id;sensor_type;location;lat;lon;timestamp;P1;durP1;ratioP1;P2;durP2;ratioP2
769;SDS011;368;48.698;9.116;2023-11-19T00:00:05;4.20;;;3.50;;
769;SDS011;368;48.698;9.116;2023-11-19T00:02:36;5.60;;;4.20;;
769;SDS011;368;48.698;9.116;2023-11-19T00:05:03;6.60;;;4.87;;
769;SDS011;368;48.698;9.116;2023-11-19T00:07:30;5.33;;;4.63;;
769;SDS011;368;48.698;9.116;2023-11-19T00:09:57;5.27;;;4.77;;
769;SDS011;368;48.698;9.116;2023-11-19T00:12:26;4.00;;;3.70;;
769;SDS011;368;48.698;9.116;2023-11-19T00:14:52;5.43;;;4.43;;
769;SDS011;368;48.698;9.116;2023-11-19T00:17:20;4.97;;;4.00;;
769;SDS011;368;48.698;9.116;2023-11-19T00:19:46;4.10;;;3.77;;
769;SDS011;368;48.698;9.116;2023-11-19T00:22:14;4.53;;;4.03;;
769;SDS011;368;48.698;9.116;2023-11-19T00:24:41;4.87;;;4.23;;
769;SDS011;368;48.698;9.116;2023-11-19T00:27:08;5.00;;;4.30;;
769;SDS011;368;48.698;9.116;2023-11-19T00:29:36;3.67;;;3.20;;
769;SDS011;368;48.698;9.116;2023-11-19T00:32:03;5.13;;;4.07;;
769;SDS011;368;48.698;9.116;2023-11-19T00:34:32;6.40;;;3.93;;
769;SDS011;368;48.698;9.116;2023-11-19T00:36:59;4.10;;;3.70;;
769;SDS011;368;48.698;9.116;2023-11-19T00:39:26;4.30;;;3.90;;
769;SDS011;368;48.698;9.116;2023-11-19T00:41:53;4.47;;;3.43;;
769;SDS011;368;48.698;9.116;2023-11-19T00:44:20;3.83;;;3.27;;
769;SDS011;368;48.698;9.116;2023-11-19T00:46:48;5.17;;;4.00;;
769;SDS011;368;48.698;9.116;2023-11-19T00:49:15;4.07;;;3.50;;
769;SDS011;368;48.698;9.116;2023-11-19T00:51:42;4.07;;;3.67;;
769;SDS011;368;48.698;9.116;2023-11-19T00:54:10;4.87;;;3.90;;
769;SDS011;368;48.698;9.116;2023-11-19T00:56:37;4.80;;;4.40;;
769;SDS011;368;48.698;9.116;2023-11-19T00:59:05;3.50;;;3.20;;
769;SDS011;368;48.698;9.116;2023-11-19T01:01:32;5.20;;;3.60;;
769;SDS011;368;48.698;9.116;2023-11-19T01:04:00;3.43;;;3.13;;
769;SDS011;368;48.698;9.116;2023-11-19T01:06:27;7.40;;;3.60;;
769;SDS011;368;48.698;9.116;2023-11-19T01:08:55;4.90;;;3.40;;
769;SDS011;368;48.698;9.116;2023-11-19T01:11:23;4.60;;;3.20;;
769;SDS011;368;48.698;9.116;2023-11-19T01:13:51;5.00;;;2.80;;
769;SDS011;368;48.698;9.116;2023-11-19T01:16:18;3.07;;;2.77;;
769;SDS011;368;48.698;9.116;2023-11-19T01:18:46;4.03;;;3.23;;
769;SDS011;368;48.698;9.116;2023-11-19T01:21:15;3.90;;;2.53;;
769;SDS011;368;48.698;9.116;2023-11-19T01:23:42;5.20;;;2.90;;
769;SDS011;368;48.698;9.116;2023-11-19T01:26:09;3.33;;;3.03;;
769;SDS011;368;48.698;9.116;2023-11-19T01:28:37;3.53;;;2.40;;
769;SDS011;368;48.698;9.116;2023-11-19T01:31:08;2.80;;;2.43;;
769;SDS011;368;48.698;9.116;2023-11-19T01:33:35;3.47;;;2.20;;
769;SDS011;368;48.698;9.116;2023-11-19T01:36:02;2.47;;;2.27;;
769;SDS011;368;48.698;9.116;2023-11-19T01:38:31;3.57;;;2.20;;
769;SDS011;368;48.698;9.116;2023-11-19T01:40:58;1.80;;;1.43;;
769;SDS011;368;48.698;9.116;2023-11-19T01:43:31;2.30;;;1.90;;
769;SDS011;368;48.698;9.116;2023-11-19T01:45:59;2.10;;;1.60;;
769;SDS011;368;48.698;9.116;2023-11-19T01:48:26;1.83;;;1.50;;
769;SDS011;368;48.698;9.116;2023-11-19T01:50:53;2.90;;;1.53;;
769;SDS011;368;48.698;9.116;2023-11-19T01:53:21;3.10;;;1.87;;
769;SDS011;368;48.698;9.116;2023-11-19T01:55:49;2.20;;;1.60;;
769;SDS011;368;48.698;9.116;2023-11-19T01:58:17;1.97;;;1.63;;
769;SDS011;368;48.698;9.116;2023-11-19T02:00:44;1.53;;;1.43;;
769;SDS011;368;48.698;9.116;2023-11-19T02:03:11;1.40;;;1.30;;
769;SDS011;368;48.698;9.116;2023-11-19T02:05:39;1.33;;;1.23;;
769;SDS011;368;48.698;9.116;2023-11-19T02:08:07;1.13;;;1.03;;
769;SDS011;368;48.698;9.116;2023-11-19T02:10:34;0.80;;;0.80;;
769;SDS011;368;48.698;9.116;2023-11-19T02:13:02;0.73;;;0.70;;
769;SDS011;368;48.698;9.116;2023-11-19T02:15:31;1.30;;;1.20;;
769;SDS011;368;48.698;9.116;2023-11-19T02:20:46;1.00;;;0.90;;
769;SDS011;368;48.698;9.116;2023-11-19T02:23:13;0.80;;;0.63;;
769;SDS011;368;48.698;9.116;2023-11-19T02:25:40;0.90;;;0.57;;
769;SDS011;368;48.698;9.116;2023-11-19T02:28:10;0.90;;;0.40;;
769;SDS011;368;48.698;9.116;2023-11-19T02:30:37;0.50;;;0.47;;
769;SDS011;368;48.698;9.116;2023-11-19T02:33:04;0.60;;;0.50;;
769;SDS011;368;48.698;9.116;2023-11-19T02:35:31;0.40;;;0.30;;
769;SDS011;368;48.698;9.116;2023-11-19T02:37:59;1.90;;;0.37;;
769;SDS011;368;48.698;9.116;2023-11-19T02:40:28;0.93;;;0.50;;
769;SDS011;368;48.698;9.116;2023-11-19T02:42:55;0.50;;;0.40;;
769;SDS011;368;48.698;9.116;2023-11-19T02:45:24;0.30;;;0.20;;
769;SDS011;368;48.698;9.116;2023-11-19T02:47:51;0.60;;;0.43;;
769;SDS011;368;48.698;9.116;2023-11-19T02:50:20;0.40;;;0.30;;
769;SDS011;368;48.698;9.116;2023-11-19T02:52:50;0.60;;;0.30;;
769;SDS011;368;48.698;9.116;2023-11-19T02:55:19;0.67;;;0.37;;
769;SDS011;368;48.698;9.116;2023-11-19T02:57:46;0.50;;;0.27;;
769;SDS011;368;48.698;9.116;2023-11-19T03:00:14;0.50;;;0.30;;
769;SDS011;368;48.698;9.116;2023-11-19T03:02:43;1.00;;;0.30;;
769;SDS011;368;48.698;9.116;2023-11-19T03:05:12;2.53;;;0.70;;
769;SDS011;368;48.698;9.116;2023-11-19T03:07:40;1.13;;;0.30;;
769;SDS011;368;48.698;9.116;2023-11-19T03:10:09;0.60;;;0.50;;
769;SDS011;368;48.698;9.116;2023-11-19T03:12:38;0.40;;;0.40;;
769;SDS011;368;48.698;9.116;2023-11-19T03:15:06;1.80;;;0.40;;
769;SDS011;368;48.698;9.116;2023-11-19T03:17:35;0.30;;;0.23;;
769;SDS011;368;48.698;9.116;2023-11-19T03:20:04;1.00;;;0.40;;
769;SDS011;368;48.698;9.116;2023-11-19T03:22:34;0.30;;;0.20;;
769;SDS011;368;48.698;9.116;2023-11-19T03:25:03;0.50;;;0.30;;
769;SDS011;368;48.698;9.116;2023-11-19T03:27:33;1.50;;;0.43;;
769;SDS011;368;48.698;9.116;2023-11-19T03:30:01;0.40;;;0.30;;
769;SDS011;368;48.698;9.116;2023-11-19T03:32:29;0.50;;;0.30;;
769;SDS011;368;48.698;9.116;2023-11-19T03:34:56;1.17;;;0.40;;
769;SDS011;368;48.698;9.116;2023-11-19T03:37:25;0.40;;;0.30;;
769;SDS011;368;48.698;9.116;2023-11-19T03:39:53;0.40;;;0.30;;
769;SDS011;368;48.698;9.116;2023-11-19T03:42:23;0.70;;;0.33;;
769;SDS011;368;48.698;9.116;2023-11-19T03:44:50;0.40;;;0.30;;
769;SDS011;368;48.698;9.116;2023-11-19T03:47:18;0.40;;;0.30;;
769;SDS011;368;48.698;9.116;2023-11-19T03:49:46;0.53;;;0.30;;
769;SDS011;368;48.698;9.116;2023-11-19T03:52:14;0.40;;;0.27;;
769;SDS011;368;48.698;9.116;2023-11-19T03:54:43;0.50;;;0.30;;
769;SDS011;368;48.698;9.116;2023-11-19T03:57:10;1.03;;;0.20;;
769;SDS011;368;48.698;9.116;2023-11-19T03:59:38;0.90;;;0.40;;
769;SDS011;368;48.698;9.116;2023-11-19T04:02:05;0.40;;;0.40;;
769;SDS011;368;48.698;9.116;2023-11-19T04:04:32;0.30;;;0.30;;
769;SDS011;368;48.698;9.116;2023-11-19T04:06:59;1.73;;;0.30;;
769;SDS011;368;48.698;9.116;2023-11-19T04:09:28;0.40;;;0.30;;
769;SDS011;368;48.698;9.116;2023-11-19T04:11:56;0.30;;;0.30;;
769;SDS011;368;48.698;9.116;2023-11-19T04:14:26;0.40;;;0.33;;
769;SDS011;368;48.698;9.116;2023-11-19T04:16:53;0.70;;;0.40;;
769;SDS011;368;48.698;9.116;2023-11-19T04:19:20;1.23;;;0.40;;
769;SDS011;368;48.698;9.116;2023-11-19T04:21:48;0.60;;;0.40;;
769;SDS011;368;48.698;9.116;2023-11-19T04:24:14;0.37;;;0.37;;
769;SDS011;368;48.698;9.116;2023-11-19T04:26:41;0.40;;;0.30;;
769;SDS011;368;48.698;9.116;2023-11-19T04:29:12;0.30;;;0.20;;
769;SDS011;368;48.698;9.116;2023-11-19T04:31:42;0.40;;;0.30;;
769;SDS011;368;48.698;9.116;2023-11-19T04:34:09;0.40;;;0.40;;
769;SDS011;368;48.698;9.116;2023-11-19T04:36:36;0.43;;;0.40;;
769;SDS011;368;48.698;9.116;2023-11-19T04:39:04;0.30;;;0.20;;
769;SDS011;368;48.698;9.116;2023-11-19T04:41:45;0.37;;;0.20;;
769;SDS011;368;48.698;9.116;2023-11-19T04:44:14;0.30;;;0.27;;
769;SDS011;368;48.698;9.116;2023-11-19T04:46:42;0.53;;;0.30;;
769;SDS011;368;48.698;9.116;2023-11-19T04:49:09;0.50;;;0.30;;
769;SDS011;368;48.698;9.116;2023-11-19T04:51:39;0.60;;;0.37;;
769;SDS011;368;48.698;9.116;2023-11-19T04:54:07;0.50;;;0.50;;
769;SDS011;368;48.698;9.116;2023-11-19T04:56:35;0.60;;;0.40;;
769;SDS011;368;48.698;9.116;2023-11-19T04:59:02;0.80;;;0.23;;
769;SDS011;368;48.698;9.116;2023-11-19T05:01:32;1.37;;;0.40;;
769;SDS011;368;48.698;9.116;2023-11-19T05:03:59;3.43;;;0.50;;
769;SDS011;368;48.698;9.116;2023-11-19T05:06:27;0.50;;;0.40;;
769;SDS011;368;48.698;9.116;2023-11-19T05:08:54;0.97;;;0.37;;
769;SDS011;368;48.698;9.116;2023-11-19T05:11:21;0.50;;;0.40;;
769;SDS011;368;48.698;9.116;2023-11-19T05:13:48;0.70;;;0.40;;
769;SDS011;368;48.698;9.116;2023-11-19T05:16:16;0.40;;;0.30;;
769;SDS011;368;48.698;9.116;2023-11-19T05:18:45;0.77;;;0.40;;
769;SDS011;368;48.698;9.116;2023-11-19T05:21:12;0.40;;;0.40;;
769;SDS011;368;48.698;9.116;2023-11-19T05:23:39;1.43;;;0.60;;
769;SDS011;368;48.698;9.116;2023-11-19T05:26:07;0.40;;;0.30;;
769;SDS011;368;48.698;9.116;2023-11-19T05:28:35;0.30;;;0.30;;
769;SDS011;368;48.698;9.116;2023-11-19T05:31:04;0.50;;;0.40;;
769;SDS011;368;48.698;9.116;2023-11-19T05:33:32;0.70;;;0.40;;
769;SDS011;368;48.698;9.116;2023-11-19T05:36:00;1.13;;;0.37;;
769;SDS011;368;48.698;9.116;2023-11-19T05:38:28;1.40;;;0.30;;
769;SDS011;368;48.698;9.116;2023-11-19T05:40:55;1.10;;;0.43;;
769;SDS011;368;48.698;9.116;2023-11-19T05:43:22;0.40;;;0.40;;
769;SDS011;368;48.698;9.116;2023-11-19T05:45:49;0.60;;;0.37;;
769;SDS011;368;48.698;9.116;2023-11-19T05:48:16;1.17;;;0.47;;
769;SDS011;368;48.698;9.116;2023-11-19T05:50:43;0.67;;;0.40;;
769;SDS011;368;48.698;9.116;2023-11-19T05:53:11;0.67;;;0.30;;
769;SDS011;368;48.698;9.116;2023-11-19T05:55:39;0.50;;;0.20;;
769;SDS011;368;48.698;9.116;2023-11-19T05:58:13;1.00;;;0.40;;
769;SDS011;368;48.698;9.116;2023-11-19T06:00:40;0.53;;;0.40;;
769;SDS011;368;48.698;9.116;2023-11-19T06:03:07;0.70;;;0.40;;
769;SDS011;368;48.698;9.116;2023-11-19T06:05:34;0.40;;;0.40;;
769;SDS011;368;48.698;9.116;2023-11-19T06:08:01;0.40;;;0.23;;
769;SDS011;368;48.698;9.116;2023-11-19T06:10:30;0.57;;;0.20;;
769;SDS011;368;48.698;9.116;2023-11-19T06:12:57;1.17;;;0.40;;
769;SDS011;368;48.698;9.116;2023-11-19T06:15:24;0.40;;;0.20;;
769;SDS011;368;48.698;9.116;2023-11-19T06:17:52;1.27;;;0.30;;
769;SDS011;368;48.698;9.116;2023-11-19T06:20:19;0.70;;;0.30;;
769;SDS011;368;48.698;9.116;2023-11-19T06:22:46;0.80;;;0.40;;
769;SDS011;368;48.698;9.116;2023-11-19T06:25:14;0.40;;;0.20;;
769;SDS011;368;48.698;9.116;2023-11-19T06:27:42;1.90;;;0.40;;
769;SDS011;368;48.698;9.116;2023-11-19T06:30:10;0.40;;;0.33;;
769;SDS011;368;48.698;9.116;2023-11-19T06:32:38;0.37;;;0.23;;
769;SDS011;368;48.698;9.116;2023-11-19T06:35:05;0.73;;;0.40;;
769;SDS011;368;48.698;9.116;2023-11-19T06:37:32;0.60;;;0.50;;
769;SDS011;368;48.698;9.116;2023-11-19T06:39:59;0.40;;;0.40;;
769;SDS011;368;48.698;9.116;2023-11-19T06:42:26;0.40;;;0.30;;
769;SDS011;368;48.698;9.116;2023-11-19T06:44:54;0.50;;;0.37;;
769;SDS011;368;48.698;9.116;2023-11-19T06:47:22;0.80;;;0.50;;
769;SDS011;368;48.698;9.116;2023-11-19T06:49:51;1.37;;;0.50;;
769;SDS011;368;48.698;9.116;2023-11-19T06:52:18;0.50;;;0.20;;
769;SDS011;368;48.698;9.116;2023-11-19T06:54:45;0.50;;;0.50;;
769;SDS011;368;48.698;9.116;2023-11-19T06:57:12;0.80;;;0.60;;
769;SDS011;368;48.698;9.116;2023-11-19T06:59:40;0.70;;;0.50;;
769;SDS011;368;48.698;9.116;2023-11-19T07:02:08;0.70;;;0.47;;
769;SDS011;368;48.698;9.116;2023-11-19T07:04:35;0.50;;;0.50;;
769;SDS011;368;48.698;9.116;2023-11-19T07:07:02;0.57;;;0.57;;
769;SDS011;368;48.698;9.116;2023-11-19T07:09:30;2.73;;;0.70;;
769;SDS011;368;48.698;9.116;2023-11-19T07:11:57;0.93;;;0.50;;
769;SDS011;368;48.698;9.116;2023-11-19T07:14:25;2.47;;;1.00;;
769;SDS011;368;48.698;9.116;2023-11-19T07:16:51;1.07;;;0.87;;
769;SDS011;368;48.698;9.116;2023-11-19T07:19:20;2.80;;;1.27;;
769;SDS011;368;48.698;9.116;2023-11-19T07:21:47;2.00;;;1.33;;
769;SDS011;368;48.698;9.116;2023-11-19T07:24:14;1.17;;;0.80;;
769;SDS011;368;48.698;9.116;2023-11-19T07:26:42;1.60;;;0.77;;
769;SDS011;368;48.698;9.116;2023-11-19T07:29:10;0.93;;;0.90;;
769;SDS011;368;48.698;9.116;2023-11-19T07:31:37;0.97;;;0.87;;
769;SDS011;368;48.698;9.116;2023-11-19T07:34:04;0.67;;;0.67;;
769;SDS011;368;48.698;9.116;2023-11-19T07:36:32;1.10;;;0.83;;
769;SDS011;368;48.698;9.116;2023-11-19T07:39:00;1.00;;;0.50;;
769;SDS011;368;48.698;9.116;2023-11-19T07:41:27;0.60;;;0.60;;
769;SDS011;368;48.698;9.116;2023-11-19T07:43:54;1.73;;;0.60;;
769;SDS011;368;48.698;9.116;2023-11-19T07:46:21;1.80;;;1.40;;
769;SDS011;368;48.698;9.116;2023-11-19T07:48:48;2.80;;;2.00;;
769;SDS011;368;48.698;9.116;2023-11-19T07:51:15;1.20;;;0.97;;
769;SDS011;368;48.698;9.116;2023-11-19T07:53:43;2.37;;;1.10;;
769;SDS011;368;48.698;9.116;2023-11-19T07:56:10;1.50;;;1.40;;
769;SDS011;368;48.698;9.116;2023-11-19T07:58:37;0.60;;;0.60;;
769;SDS011;368;48.698;9.116;2023-11-19T08:01:04;1.07;;;0.97;;
769;SDS011;368;48.698;9.116;2023-11-19T08:03:31;0.93;;;0.90;;
769;SDS011;368;48.698;9.116;2023-11-19T08:05:59;1.70;;;1.60;;
769;SDS011;368;48.698;9.116;2023-11-19T08:08:26;0.70;;;0.70;;
769;SDS011;368;48.698;9.116;2023-11-19T08:10:56;0.90;;;0.70;;
769;SDS011;368;48.698;9.116;2023-11-19T08:13:23;2.10;;;1.67;;
769;SDS011;368;48.698;9.116;2023-11-19T08:15:50;3.00;;;2.03;;
769;SDS011;368;48.698;9.116;2023-11-19T08:18:16;4.90;;;3.23;;
769;SDS011;368;48.698;9.116;2023-11-19T08:20:44;3.80;;;3.50;;
769;SDS011;368;48.698;9.116;2023-11-19T08:23:12;2.57;;;2.37;;
769;SDS011;368;48.698;9.116;2023-11-19T08:25:39;1.30;;;1.10;;
769;SDS011;368;48.698;9.116;2023-11-19T08:28:07;0.80;;;0.80;;
769;SDS011;368;48.698;9.116;2023-11-19T08:30:34;1.03;;;0.53;;
769;SDS011;368;48.698;9.116;2023-11-19T08:33:01;1.40;;;1.30;;
769;SDS011;368;48.698;9.116;2023-11-19T08:35:28;2.70;;;2.50;;
769;SDS011;368;48.698;9.116;2023-11-19T08:37:55;1.83;;;1.73;;
769;SDS011;368;48.698;9.116;2023-11-19T08:40:24;0.83;;;0.70;;
769;SDS011;368;48.698;9.116;2023-11-19T08:42:51;1.27;;;1.17;;
769;SDS011;368;48.698;9.116;2023-11-19T08:45:19;2.40;;;0.70;;
769;SDS011;368;48.698;9.116;2023-11-19T08:47:46;7.00;;;4.93;;
769;SDS011;368;48.698;9.116;2023-11-19T08:50:13;2.23;;;1.00;;
769;SDS011;368;48.698;9.116;2023-11-19T08:52:40;1.53;;;0.87;;
769;SDS011;368;48.698;9.116;2023-11-19T08:55:07;3.33;;;2.33;;
769;SDS011;368;48.698;9.116;2023-11-19T08:57:35;3.90;;;2.27;;
769;SDS011;368;48.698;9.116;2023-11-19T09:00:02;2.50;;;2.20;;
769;SDS011;368;48.698;9.116;2023-11-19T09:02:34;1.00;;;0.67;;
769;SDS011;368;48.698;9.116;2023-11-19T09:05:02;2.83;;;2.03;;
769;SDS011;368;48.698;9.116;2023-11-19T09:07:28;1.40;;;1.00;;
769;SDS011;368;48.698;9.116;2023-11-19T09:09:55;1.30;;;0.93;;
769;SDS011;368;48.698;9.116;2023-11-19T09:12:22;1.00;;;0.70;;
769;SDS011;368;48.698;9.116;2023-11-19T09:14:49;2.63;;;2.00;;
769;SDS011;368;48.698;9.116;2023-11-19T09:17:16;1.87;;;1.60;;
769;SDS011;368;48.698;9.116;2023-11-19T09:19:45;2.37;;;1.80;;
769;SDS011;368;48.698;9.116;2023-11-19T09:22:11;2.87;;;2.67;;
769;SDS011;368;48.698;9.116;2023-11-19T09:24:39;3.00;;;2.70;;
769;SDS011;368;48.698;9.116;2023-11-19T09:27:06;0.97;;;0.97;;
769;SDS011;368;48.698;9.116;2023-11-19T09:29:33;1.37;;;1.00;;
769;SDS011;368;48.698;9.116;2023-11-19T09:32:00;2.03;;;1.93;;
769;SDS011;368;48.698;9.116;2023-11-19T09:34:27;2.93;;;2.30;;
769;SDS011;368;48.698;9.116;2023-11-19T09:36:55;1.20;;;0.80;;
769;SDS011;368;48.698;9.116;2023-11-19T09:39:22;2.03;;;1.93;;
769;SDS011;368;48.698;9.116;2023-11-19T09:41:51;1.97;;;0.83;;
769;SDS011;368;48.698;9.116;2023-11-19T09:44:18;0.80;;;0.47;;
769;SDS011;368;48.698;9.116;2023-11-19T09:46:45;1.00;;;0.60;;
769;SDS011;368;48.698;9.116;2023-11-19T09:49:14;0.50;;;0.47;;
769;SDS011;368;48.698;9.116;2023-11-19T09:51:45;1.37;;;0.60;;
769;SDS011;368;48.698;9.116;2023-11-19T09:54:13;0.80;;;0.70;;
769;SDS011;368;48.698;9.116;2023-11-19T09:56:40;0.73;;;0.60;;
769;SDS011;368;48.698;9.116;2023-11-19T09:59:07;0.70;;;0.50;;
769;SDS011;368;48.698;9.116;2023-11-19T10:01:37;2.30;;;1.53;;
769;SDS011;368;48.698;9.116;2023-11-19T10:04:04;1.27;;;1.10;;
769;SDS011;368;48.698;9.116;2023-11-19T10:06:33;1.23;;;1.13;;
769;SDS011;368;48.698;9.116;2023-11-19T10:09:00;0.60;;;0.60;;
769;SDS011;368;48.698;9.116;2023-11-19T10:11:31;0.97;;;0.90;;
769;SDS011;368;48.698;9.116;2023-11-19T10:13:58;1.00;;;0.90;;
769;SDS011;368;48.698;9.116;2023-11-19T10:16:28;1.33;;;1.23;;
769;SDS011;368;48.698;9.116;2023-11-19T10:18:56;0.70;;;0.60;;
769;SDS011;368;48.698;9.116;2023-11-19T10:21:23;0.70;;;0.70;;
769;SDS011;368;48.698;9.116;2023-11-19T10:23:53;1.03;;;0.80;;
769;SDS011;368;48.698;9.116;2023-11-19T10:26:22;2.50;;;0.40;;
769;SDS011;368;48.698;9.116;2023-11-19T10:28:50;0.70;;;0.40;;
769;SDS011;368;48.698;9.116;2023-11-19T10:31:18;1.20;;;1.10;;
769;SDS011;368;48.698;9.116;2023-11-19T10:33:49;0.50;;;0.30;;
769;SDS011;368;48.698;9.116;2023-11-19T10:36:16;1.03;;;0.50;;
769;SDS011;368;48.698;9.116;2023-11-19T10:38:51;0.40;;;0.40;;
769;SDS011;368;48.698;9.116;2023-11-19T10:41:26;0.90;;;0.30;;
769;SDS011;368;48.698;9.116;2023-11-19T10:43:54;0.50;;;0.30;;
769;SDS011;368;48.698;9.116;2023-11-19T10:46:21;1.23;;;0.50;;
769;SDS011;368;48.698;9.116;2023-11-19T10:48:48;1.13;;;0.30;;
769;SDS011;368;48.698;9.116;2023-11-19T10:51:18;0.40;;;0.40;;
769;SDS011;368;48.698;9.116;2023-11-19T10:53:48;1.30;;;0.43;;
769;SDS011;368;48.698;9.116;2023-11-19T10:56:16;0.70;;;0.40;;
769;SDS011;368;48.698;9.116;2023-11-19T10:58:46;0.60;;;0.60;;
769;SDS011;368;48.698;9.116;2023-11-19T11:01:20;1.00;;;0.47;;
769;SDS011;368;48.698;9.116;2023-11-19T11:03:50;1.27;;;0.30;;
769;SDS011;368;48.698;9.116;2023-11-19T11:06:19;0.60;;;0.40;;
769;SDS011;368;48.698;9.116;2023-11-19T11:08:47;0.80;;;0.40;;
769;SDS011;368;48.698;9.116;2023-11-19T11:11:15;0.80;;;0.67;;
769;SDS011;368;48.698;9.116;2023-11-19T11:13:46;0.30;;;0.20;;
769;SDS011;368;48.698;9.116;2023-11-19T11:16:14;1.20;;;0.40;;
769;SDS011;368;48.698;9.116;2023-11-19T11:18:45;1.30;;;0.40;;
769;SDS011;368;48.698;9.116;2023-11-19T11:21:15;0.37;;;0.33;;
769;SDS011;368;48.698;9.116;2023-11-19T11:23:58;0.70;;;0.50;;
769;SDS011;368;48.698;9.116;2023-11-19T11:26:51;0.70;;;0.50;;
769;SDS011;368;48.698;9.116;2023-11-19T11:29:31;0.73;;;0.63;;
769;SDS011;368;48.698;9.116;2023-11-19T11:32:08;2.40;;;0.50;;
769;SDS011;368;48.698;9.116;2023-11-19T11:34:55;1.57;;;0.70;;
769;SDS011;368;48.698;9.116;2023-11-19T11:37:32;2.17;;;1.13;;
769;SDS011;368;48.698;9.116;2023-11-19T11:40:01;2.33;;;0.93;;
769;SDS011;368;48.698;9.116;2023-11-19T11:42:35;1.63;;;0.50;;
769;SDS011;368;48.698;9.116;2023-11-19T11:45:05;1.53;;;0.50;;
769;SDS011;368;48.698;9.116;2023-11-19T11:50:35;1.10;;;0.60;;
769;SDS011;368;48.698;9.116;2023-11-19T11:53:15;1.33;;;0.50;;
769;SDS011;368;48.698;9.116;2023-11-19T11:55:52;2.23;;;0.80;;
769;SDS011;368;48.698;9.116;2023-11-19T11:58:28;0.83;;;0.47;;
769;SDS011;368;48.698;9.116;2023-11-19T12:00:57;0.50;;;0.40;;
769;SDS011;368;48.698;9.116;2023-11-19T12:03:27;1.53;;;0.50;;
769;SDS011;368;48.698;9.116;2023-11-19T12:05:57;1.23;;;0.50;;
769;SDS011;368;48.698;9.116;2023-11-19T12:08:25;0.70;;;0.40;;
769;SDS011;368;48.698;9.116;2023-11-19T12:10:53;1.23;;;0.60;;
769;SDS011;368;48.698;9.116;2023-11-19T12:13:22;0.60;;;0.20;;
769;SDS011;368;48.698;9.116;2023-11-19T12:18:41;2.33;;;0.33;;
769;SDS011;368;48.698;9.116;2023-11-19T12:21:09;1.03;;;0.47;;
769;SDS011;368;48.698;9.116;2023-11-19T12:23:43;0.60;;;0.40;;
769;SDS011;368;48.698;9.116;2023-11-19T12:26:35;1.90;;;0.30;;
769;SDS011;368;48.698;9.116;2023-11-19T12:29:03;0.63;;;0.40;;
769;SDS011;368;48.698;9.116;2023-11-19T12:31:31;1.87;;;0.80;;
769;SDS011;368;48.698;9.116;2023-11-19T12:34:01;0.63;;;0.50;;
769;SDS011;368;48.698;9.116;2023-11-19T12:36:38;1.90;;;0.80;;
769;SDS011;368;48.698;9.116;2023-11-19T12:39:06;1.60;;;0.50;;
769;SDS011;368;48.698;9.116;2023-11-19T12:41:48;1.73;;;0.60;;
769;SDS011;368;48.698;9.116;2023-11-19T12:44:16;0.60;;;0.30;;
769;SDS011;368;48.698;9.116;2023-11-19T12:46:42;1.40;;;0.47;;
769;SDS011;368;48.698;9.116;2023-11-19T12:49:11;1.17;;;0.60;;
769;SDS011;368;48.698;9.116;2023-11-19T12:51:40;1.00;;;0.50;;
769;SDS011;368;48.698;9.116;2023-11-19T12:54:07;0.90;;;0.60;;
769;SDS011;368;48.698;9.116;2023-11-19T12:56:33;2.20;;;0.70;;
769;SDS011;368;48.698;9.116;2023-11-19T12:59:09;1.23;;;0.73;;
769;SDS011;368;48.698;9.116;2023-11-19T13:01:37;0.50;;;0.30;;
769;SDS011;368;48.698;9.116;2023-11-19T13:04:15;1.33;;;0.70;;
769;SDS011;368;48.698;9.116;2023-11-19T13:06:45;1.00;;;0.60;;
769;SDS011;368;48.698;9.116;2023-11-19T13:09:21;0.80;;;0.70;;
769;SDS011;368;48.698;9.116;2023-11-19T13:11:48;1.30;;;0.60;;
769;SDS011;368;48.698;9.116;2023-11-19T13:14:15;1.47;;;0.77;;
769;SDS011;368;48.698;9.116;2023-11-19T13:16:43;2.47;;;0.73;;
769;SDS011;368;48.698;9.116;2023-11-19T13:19:10;1.20;;;0.40;;
769;SDS011;368;48.698;9.116;2023-11-19T13:21:37;2.50;;;0.60;;
769;SDS011;368;48.698;9.116;2023-11-19T13:24:06;1.60;;;0.60;;
769;SDS011;368;48.698;9.116;2023-11-19T13:26:33;1.90;;;0.50;;
769;SDS011;368;48.698;9.116;2023-11-19T13:29:00;1.33;;;0.40;;
769;SDS011;368;48.698;9.116;2023-11-19T13:31:27;2.10;;;0.40;;
769;SDS011;368;48.698;9.116;2023-11-19T13:33:54;0.60;;;0.47;;
769;SDS011;368;48.698;9.116;2023-11-19T13:36:21;0.87;;;0.50;;
769;SDS011;368;48.698;9.116;2023-11-19T13:38:48;0.80;;;0.40;;
769;SDS011;368;48.698;9.116;2023-11-19T13:41:16;1.30;;;0.60;;
769;SDS011;368;48.698;9.116;2023-11-19T13:43:43;2.40;;;0.40;;
769;SDS011;368;48.698;9.116;2023-11-19T13:46:10;0.93;;;0.60;;
769;SDS011;368;48.698;9.116;2023-11-19T13:48:37;1.00;;;0.90;;
769;SDS011;368;48.698;9.116;2023-11-19T13:51:05;1.07;;;0.73;;
769;SDS011;368;48.698;9.116;2023-11-19T13:53:32;0.67;;;0.50;;
769;SDS011;368;48.698;9.116;2023-11-19T13:55:59;0.60;;;0.50;;
769;SDS011;368;48.698;9.116;2023-11-19T13:58:27;1.20;;;0.50;;
769;SDS011;368;48.698;9.116;2023-11-19T14:00:54;1.03;;;0.60;;
769;SDS011;368;48.698;9.116;2023-11-19T14:03:21;0.57;;;0.40;;
769;SDS011;368;48.698;9.116;2023-11-19T14:05:47;0.97;;;0.50;;
769;SDS011;368;48.698;9.116;2023-11-19T14:08:17;1.43;;;0.30;;
769;SDS011;368;48.698;9.116;2023-11-19T14:10:44;0.97;;;0.60;;
769;SDS011;368;48.698;9.116;2023-11-19T14:13:11;0.70;;;0.50;;
769;SDS011;368;48.698;9.116;2023-11-19T14:15:41;1.00;;;0.50;;
769;SDS011;368;48.698;9.116;2023-11-19T14:18:08;0.83;;;0.47;;
769;SDS011;368;48.698;9.116;2023-11-19T14:20:35;1.57;;;0.60;;
769;SDS011;368;48.698;9.116;2023-11-19T14:23:02;1.47;;;0.50;;
769;SDS011;368;48.698;9.116;2023-11-19T14:25:29;1.47;;;0.63;;
769;SDS011;368;48.698;9.116;2023-11-19T14:27:56;0.80;;;0.43;;
769;SDS011;368;48.698;9.116;2023-11-19T14:30:23;0.73;;;0.50;;
769;SDS011;368;48.698;9.116;2023-11-19T14:32:52;0.77;;;0.50;;
769;SDS011;368;48.698;9.116;2023-11-19T14:35:19;0.87;;;0.40;;
769;SDS011;368;48.698;9.116;2023-11-19T14:37:46;0.90;;;0.60;;
769;SDS011;368;48.698;9.116;2023-11-19T14:40:13;2.07;;;0.73;;
769;SDS011;368;48.698;9.116;2023-11-19T14:42:39;0.60;;;0.50;;
769;SDS011;368;48.698;9.116;2023-11-19T14:45:07;1.33;;;0.57;;
769;SDS011;368;48.698;9.116;2023-11-19T14:47:37;1.13;;;0.60;;
769;SDS011;368;48.698;9.116;2023-11-19T14:50:05;0.90;;;0.60;;
769;SDS011;368;48.698;9.116;2023-11-19T14:52:34;0.70;;;0.27;;
769;SDS011;368;48.698;9.116;2023-11-19T14:55:02;2.23;;;0.70;;
769;SDS011;368;48.698;9.116;2023-11-19T14:57:30;0.70;;;0.50;;
769;SDS011;368;48.698;9.116;2023-11-19T14:59:57;1.80;;;0.77;;
769;SDS011;368;48.698;9.116;2023-11-19T15:02:24;1.20;;;0.53;;
769;SDS011;368;48.698;9.116;2023-11-19T15:04:51;1.13;;;0.80;;
769;SDS011;368;48.698;9.116;2023-11-19T15:07:20;2.87;;;0.60;;
769;SDS011;368;48.698;9.116;2023-11-19T15:09:47;0.60;;;0.50;;
769;SDS011;368;48.698;9.116;2023-11-19T15:12:14;0.77;;;0.70;;
769;SDS011;368;48.698;9.116;2023-11-19T15:14:42;0.67;;;0.50;;
769;SDS011;368;48.698;9.116;2023-11-19T15:17:09;0.50;;;0.40;;
769;SDS011;368;48.698;9.116;2023-11-19T15:19:36;0.40;;;0.40;;
769;SDS011;368;48.698;9.116;2023-11-19T15:22:06;1.27;;;0.60;;
769;SDS011;368;48.698;9.116;2023-11-19T15:24:34;1.23;;;0.93;;
769;SDS011;368;48.698;9.116;2023-11-19T15:27:04;0.73;;;0.57;;
769;SDS011;368;48.698;9.116;2023-11-19T15:29:31;1.30;;;0.47;;
769;SDS011;368;48.698;9.116;2023-11-19T15:31:59;2.33;;;0.60;;
769;SDS011;368;48.698;9.116;2023-11-19T15:34:28;0.80;;;0.57;;
769;SDS011;368;48.698;9.116;2023-11-19T15:36:55;1.23;;;0.40;;
769;SDS011;368;48.698;9.116;2023-11-19T15:39:22;0.60;;;0.43;;
769;SDS011;368;48.698;9.116;2023-11-19T15:41:53;0.80;;;0.47;;
769;SDS011;368;48.698;9.116;2023-11-19T15:44:20;0.60;;;0.60;;
769;SDS011;368;48.698;9.116;2023-11-19T15:46:47;0.90;;;0.60;;
769;SDS011;368;48.698;9.116;2023-11-19T15:49:14;0.70;;;0.50;;
769;SDS011;368;48.698;9.116;2023-11-19T15:51:41;3.43;;;1.53;;
769;SDS011;368;48.698;9.116;2023-11-19T15:54:08;2.30;;;0.73;;
769;SDS011;368;48.698;9.116;2023-11-19T15:56:35;1.77;;;0.80;;
769;SDS011;368;48.698;9.116;2023-11-19T15:59:03;4.90;;;3.13;;